createdAt,value
2023-01-19T00:00:59.970Z,3.52
2023-01-19T00:03:29.282Z,3.50
2023-01-19T00:05:56.332Z,3.52
2023-01-19T00:08:23.618Z,3.53
2023-01-19T00:10:53.834Z,3.44
2023-01-19T00:13:21.344Z,3.45
2023-01-19T00:15:48.271Z,3.39
2023-01-19T00:18:15.578Z,3.40
2023-01-19T00:20:44.893Z,3.43
2023-01-19T00:23:12.673Z,3.43
2023-01-19T00:25:42.668Z,3.40
2023-01-19T00:28:16.982Z,3.31
2023-01-19T00:30:45.258Z,3.28
2023-01-19T00:33:15.980Z,3.20
2023-01-19T00:35:43.653Z,3.09
2023-01-19T00:38:12.605Z,3.06
2023-01-19T00:40:39.728Z,3.06
2023-01-19T00:43:07.047Z,2.99
2023-01-19T00:45:34.779Z,2.97
2023-01-19T00:48:02.095Z,2.96
2023-01-19T00:50:31.548Z,3.01
2023-01-19T00:53:03.605Z,3.04
2023-01-19T00:55:33.624Z,3.04
2023-01-19T00:58:01.166Z,3.05
2023-01-19T01:00:28.263Z,3.07
2023-01-19T01:02:55.817Z,3.07
2023-01-19T01:05:23.194Z,3.09
2023-01-19T01:07:50.827Z,3.08
2023-01-19T01:10:23.738Z,3.07
2023-01-19T01:12:56.015Z,3.07
2023-01-19T01:15:26.624Z,3.10
2023-01-19T01:17:54.708Z,3.09
2023-01-19T01:20:27.949Z,3.09
2023-01-19T01:22:57.388Z,3.07
2023-01-19T01:25:27.350Z,3.09
2023-01-19T01:27:55.683Z,3.05
2023-01-19T01:30:23.466Z,3.07
2023-01-19T01:32:50.984Z,3.09
2023-01-19T01:35:18.244Z,3.04
2023-01-19T01:37:45.432Z,3.01
2023-01-19T01:40:16.205Z,2.96
2023-01-19T01:42:44.147Z,2.95
2023-01-19T01:45:40.726Z,2.95
2023-01-19T01:48:22.440Z,2.94
2023-01-19T01:51:17.494Z,2.90
2023-01-19T01:53:48.495Z,2.89
2023-01-19T01:56:22.051Z,2.87
2023-01-19T01:58:50.292Z,2.87
2023-01-19T02:01:35.622Z,2.87
2023-01-19T02:04:03.135Z,2.87
2023-01-19T02:06:30.383Z,2.82
2023-01-19T02:09:29.693Z,2.84
2023-01-19T02:12:16.449Z,2.85
2023-01-19T02:14:43.643Z,2.77
2023-01-19T02:17:10.813Z,2.76
2023-01-19T02:19:43.609Z,2.75
2023-01-19T02:22:31.949Z,2.76
2023-01-19T02:24:59.429Z,2.76
2023-01-19T02:27:26.442Z,2.74
2023-01-19T02:29:54.248Z,2.65
2023-01-19T02:32:21.294Z,2.64
2023-01-19T02:34:48.539Z,2.69
2023-01-19T02:37:19.300Z,2.71
2023-01-19T02:39:55.755Z,2.75
2023-01-19T02:42:29.772Z,2.79
2023-01-19T02:44:58.352Z,2.74
2023-01-19T02:47:25.592Z,2.75
2023-01-19T02:50:00.869Z,2.76
2023-01-19T02:52:28.500Z,2.79
2023-01-19T02:55:27.038Z,2.74
2023-01-19T02:58:29.219Z,2.75
2023-01-19T03:01:02.696Z,2.77
2023-01-19T03:04:09.601Z,2.73
2023-01-19T03:06:50.252Z,2.72
2023-01-19T03:09:23.141Z,2.67
2023-01-19T03:12:25.539Z,2.61
2023-01-19T03:15:01.785Z,2.56
2023-01-19T03:17:32.694Z,2.58
2023-01-19T03:20:02.136Z,2.59
2023-01-19T03:22:30.051Z,2.57
2023-01-19T03:25:02.163Z,2.55
2023-01-19T03:27:40.694Z,2.51
2023-01-19T03:30:19.299Z,2.50
2023-01-19T03:33:00.212Z,2.49
2023-01-19T03:35:34.513Z,2.49
2023-01-19T03:38:10.096Z,2.48
2023-01-19T03:40:37.739Z,2.47
2023-01-19T03:43:06.530Z,2.48
2023-01-19T03:45:38.603Z,2.47
2023-01-19T03:48:07.497Z,2.43
2023-01-19T03:50:34.386Z,2.46
2023-01-19T03:53:07.584Z,2.36
2023-01-19T03:55:37.613Z,2.39
2023-01-19T03:58:05.214Z,2.40
2023-01-19T04:00:33.051Z,2.41
2023-01-19T04:03:00.758Z,2.40
2023-01-19T04:05:28.028Z,2.43
2023-01-19T04:07:55.847Z,2.43
2023-01-19T04:10:23.001Z,2.45
2023-01-19T04:12:50.249Z,2.49
2023-01-19T04:15:18.609Z,2.53
2023-01-19T04:17:45.808Z,2.55
2023-01-19T04:20:12.964Z,2.56
2023-01-19T04:22:40.429Z,2.57
2023-01-19T04:25:08.380Z,2.52
2023-01-19T04:27:37.257Z,2.41
2023-01-19T04:30:05.337Z,2.38
2023-01-19T04:32:32.950Z,2.48
2023-01-19T04:35:00.435Z,2.53
2023-01-19T04:37:28.072Z,2.51
2023-01-19T04:39:55.263Z,2.51
2023-01-19T04:42:23.100Z,2.50
2023-01-19T04:44:49.983Z,2.49
2023-01-19T04:47:17.126Z,2.49
2023-01-19T04:49:44.246Z,2.41
2023-01-19T04:52:11.596Z,2.40
2023-01-19T04:54:38.466Z,2.38
2023-01-19T04:57:05.672Z,2.35
2023-01-19T04:59:32.541Z,2.31
2023-01-19T05:01:59.758Z,2.16
2023-01-19T05:04:26.881Z,2.24
2023-01-19T05:06:54.377Z,2.25
2023-01-19T05:09:21.403Z,2.23
2023-01-19T05:11:48.581Z,2.19
2023-01-19T05:14:15.577Z,2.18
2023-01-19T05:16:42.703Z,2.12
2023-01-19T05:19:09.724Z,2.11
2023-01-19T05:21:36.903Z,2.09
2023-01-19T05:24:04.248Z,2.07
2023-01-19T05:26:31.395Z,1.96
2023-01-19T05:28:58.353Z,1.97
2023-01-19T05:31:25.677Z,1.96
2023-01-19T05:33:52.680Z,1.96
2023-01-19T05:36:19.791Z,1.99
2023-01-19T05:38:46.703Z,1.94
2023-01-19T05:41:14.411Z,1.80
2023-01-19T05:43:41.279Z,1.79
2023-01-19T05:46:08.463Z,1.80
2023-01-19T05:48:35.402Z,1.83
2023-01-19T05:51:02.630Z,1.81
2023-01-19T05:53:29.749Z,1.81
2023-01-19T05:56:02.561Z,1.79
2023-01-19T05:58:29.675Z,1.75
2023-01-19T06:00:57.170Z,1.72
2023-01-19T06:03:24.355Z,1.67
2023-01-19T06:05:51.546Z,1.65
2023-01-19T06:08:19.831Z,1.68
2023-01-19T06:10:48.292Z,1.67
2023-01-19T06:13:15.398Z,1.64
2023-01-19T06:15:43.802Z,1.64
2023-01-19T06:18:12.615Z,1.60
2023-01-19T06:20:39.758Z,1.55
2023-01-19T06:23:06.756Z,1.53
2023-01-19T06:25:34.068Z,1.52
2023-01-19T06:28:01.260Z,1.54
2023-01-19T06:30:29.113Z,1.53
2023-01-19T06:32:56.070Z,1.51
2023-01-19T06:35:23.247Z,1.53
2023-01-19T06:37:50.218Z,1.54
2023-01-19T06:40:17.799Z,1.48
2023-01-19T06:42:44.689Z,1.40
2023-01-19T06:45:12.011Z,1.31
2023-01-19T06:47:39.132Z,1.27
2023-01-19T06:50:07.105Z,1.32
2023-01-19T06:52:34.903Z,1.35
2023-01-19T06:55:02.322Z,1.31
2023-01-19T06:57:29.184Z,1.31
2023-01-19T06:59:58.667Z,1.35
2023-01-19T07:02:28.544Z,1.35
2023-01-19T07:04:56.817Z,1.35
2023-01-19T07:07:23.805Z,1.42
2023-01-19T07:09:53.858Z,1.45
2023-01-19T07:12:22.875Z,1.41
2023-01-19T07:14:50.278Z,1.46
2023-01-19T07:17:17.388Z,1.46
2023-01-19T07:19:44.672Z,1.43
2023-01-19T07:22:11.615Z,1.44
2023-01-19T07:24:38.918Z,1.44
2023-01-19T07:27:05.921Z,1.43
2023-01-19T07:29:33.130Z,1.42
2023-01-19T07:32:00.143Z,1.44
2023-01-19T07:34:27.377Z,1.45
2023-01-19T07:36:56.225Z,1.45
2023-01-19T07:39:23.507Z,1.41
2023-01-19T07:41:50.485Z,1.38
2023-01-19T07:44:17.691Z,1.33
2023-01-19T07:46:44.640Z,1.26
2023-01-19T07:49:12.688Z,1.30
2023-01-19T07:51:39.571Z,1.29
2023-01-19T07:54:08.539Z,1.25
2023-01-19T07:56:35.712Z,1.19
2023-01-19T07:59:03.078Z,1.13
2023-01-19T08:01:31.567Z,1.11
2023-01-19T08:03:58.939Z,1.12
2023-01-19T08:06:35.080Z,1.15
2023-01-19T08:09:05.563Z,1.11
2023-01-19T08:11:33.534Z,1.09
2023-01-19T08:14:00.964Z,1.05
2023-01-19T08:16:28.083Z,1.04
2023-01-19T08:18:55.448Z,1.03
2023-01-19T08:21:22.496Z,0.91
2023-01-19T08:23:54.694Z,0.89
2023-01-19T08:26:29.873Z,0.93
2023-01-19T08:29:00.927Z,1.00
2023-01-19T08:31:28.523Z,1.03
2023-01-19T08:33:55.937Z,1.05
2023-01-19T08:36:23.884Z,1.15
2023-01-19T08:38:51.969Z,1.18
2023-01-19T08:41:19.029Z,1.23
2023-01-19T08:43:46.769Z,1.28
2023-01-19T08:46:17.499Z,1.27
2023-01-19T08:48:50.970Z,1.30
2023-01-19T08:51:18.776Z,1.31
2023-01-19T08:53:46.112Z,1.19
2023-01-19T08:56:14.362Z,1.17
2023-01-19T08:58:44.209Z,1.21
2023-01-19T09:01:17.082Z,1.31
2023-01-19T09:03:44.592Z,1.37
2023-01-19T09:06:14.664Z,1.41
2023-01-19T09:08:41.987Z,1.44
2023-01-19T09:11:15.251Z,1.49
2023-01-19T09:13:42.687Z,1.56
2023-01-19T09:16:13.428Z,1.45
2023-01-19T09:18:40.850Z,1.45
2023-01-19T09:21:09.111Z,1.46
2023-01-19T09:23:36.439Z,1.36
2023-01-19T09:26:05.810Z,1.45
2023-01-19T09:28:33.635Z,1.50
2023-01-19T09:31:08.267Z,1.58
2023-01-19T09:33:35.884Z,1.49
2023-01-19T09:36:02.861Z,1.59
2023-01-19T09:38:34.065Z,1.63
2023-01-19T09:41:01.764Z,1.61
2023-01-19T09:43:41.401Z,1.69
2023-01-19T09:46:42.142Z,1.74
2023-01-19T09:49:23.389Z,1.71
2023-01-19T09:51:51.688Z,1.73
2023-01-19T09:54:29.820Z,1.73
2023-01-19T09:56:56.891Z,1.69
2023-01-19T09:59:28.794Z,1.79
2023-01-19T10:02:25.123Z,1.89
2023-01-19T10:05:22.703Z,1.99
2023-01-19T10:08:16.548Z,2.07
2023-01-19T10:10:52.878Z,2.13
2023-01-19T10:13:48.778Z,2.23
2023-01-19T10:16:33.987Z,2.29
2023-01-19T10:19:29.500Z,2.21
2023-01-19T10:22:00.557Z,2.30
2023-01-19T10:24:40.297Z,2.34
2023-01-19T10:27:18.351Z,2.36
2023-01-19T10:29:46.813Z,2.32
2023-01-19T10:32:25.759Z,2.28
2023-01-19T10:34:54.836Z,2.30
2023-01-19T10:37:28.857Z,2.34
2023-01-19T10:40:20.716Z,2.42
2023-01-19T10:42:48.103Z,2.48
2023-01-19T10:45:18.642Z,2.53
2023-01-19T10:47:48.457Z,2.54
2023-01-19T10:50:37.208Z,2.56
2023-01-19T10:53:06.726Z,2.54
2023-01-19T10:55:39.971Z,2.56
2023-01-19T10:58:29.508Z,2.51
2023-01-19T11:01:15.236Z,2.61
2023-01-19T11:03:42.719Z,2.70
2023-01-19T11:06:15.758Z,2.76
2023-01-19T11:08:45.973Z,2.80
2023-01-19T11:11:13.936Z,2.82
2023-01-19T11:13:43.942Z,2.83
2023-01-19T11:16:30.888Z,2.83
2023-01-19T11:19:02.074Z,2.86
2023-01-19T11:21:32.149Z,2.80
2023-01-19T11:24:05.430Z,2.91
2023-01-19T11:26:44.286Z,2.95
2023-01-19T11:29:25.664Z,2.98
2023-01-19T11:31:54.895Z,3.04
2023-01-19T11:34:35.624Z,3.07
2023-01-19T11:37:18.098Z,3.14
2023-01-19T11:39:55.925Z,3.20
2023-01-19T11:42:24.565Z,3.18
2023-01-19T11:45:14.810Z,3.17
2023-01-19T11:47:45.989Z,3.18
2023-01-19T11:50:29.968Z,3.21
2023-01-19T11:53:24.500Z,3.09
2023-01-19T11:56:06.888Z,3.01
2023-01-19T11:58:40.195Z,3.08
2023-01-19T12:01:25.957Z,3.08
2023-01-19T12:04:17.165Z,3.04
2023-01-19T12:06:53.006Z,3.05
2023-01-19T12:09:35.163Z,3.11
2023-01-19T12:12:17.222Z,3.16
2023-01-19T12:14:58.279Z,3.20
2023-01-19T12:17:39.549Z,3.27
2023-01-19T12:20:37.390Z,3.28
2023-01-19T12:23:31.276Z,3.30
2023-01-19T12:26:33.381Z,3.31
2023-01-19T12:29:14.766Z,3.23
2023-01-19T12:31:43.112Z,3.15
2023-01-19T12:34:26.171Z,3.22
2023-01-19T12:37:00.898Z,3.25
2023-01-19T12:39:28.221Z,3.23
2023-01-19T12:42:19.882Z,3.27
2023-01-19T12:44:50.623Z,3.16
2023-01-19T12:47:21.143Z,3.17
2023-01-19T12:50:05.925Z,3.23
2023-01-19T12:52:36.546Z,3.27
2023-01-19T12:55:18.905Z,3.18
2023-01-19T12:58:00.553Z,3.17
2023-01-19T13:00:41.017Z,3.11
2023-01-19T13:03:17.281Z,3.16
2023-01-19T13:05:44.455Z,3.22
2023-01-19T13:08:14.235Z,3.29
2023-01-19T13:11:02.768Z,3.30
2023-01-19T13:13:50.202Z,3.38
2023-01-19T13:16:20.568Z,3.40
2023-01-19T13:19:01.773Z,3.35
2023-01-19T13:21:39.825Z,3.34
2023-01-19T13:24:22.631Z,3.31
2023-01-19T13:26:50.010Z,3.28
2023-01-19T13:29:41.244Z,3.28
2023-01-19T13:32:21.198Z,3.09
2023-01-19T13:34:59.198Z,3.07
2023-01-19T13:37:37.308Z,2.99
2023-01-19T13:40:05.617Z,3.00
2023-01-19T13:42:37.542Z,3.01
2023-01-19T13:45:26.790Z,2.98
2023-01-19T13:47:58.513Z,3.02
2023-01-19T13:50:35.958Z,3.06
2023-01-19T13:53:04.774Z,3.00
2023-01-19T13:55:32.229Z,3.06
2023-01-19T13:57:59.689Z,3.05
2023-01-19T14:00:31.080Z,2.97
2023-01-19T14:03:18.546Z,2.94
2023-01-19T14:05:45.694Z,2.92
2023-01-19T14:08:18.124Z,3.01
2023-01-19T14:10:46.113Z,3.07
2023-01-19T14:13:29.974Z,2.92
2023-01-19T14:16:04.303Z,2.95
2023-01-19T14:18:34.817Z,2.84
2023-01-19T14:21:11.359Z,2.76
2023-01-19T14:23:38.452Z,2.85
2023-01-19T14:26:06.335Z,2.88
2023-01-19T14:28:39.301Z,2.56
2023-01-19T14:31:28.171Z,2.66
2023-01-19T14:33:58.698Z,2.59
2023-01-19T14:36:34.668Z,2.63
2023-01-19T14:39:03.475Z,2.57
2023-01-19T14:41:49.219Z,2.60
2023-01-19T14:44:24.765Z,2.65
2023-01-19T14:46:51.821Z,2.61
2023-01-19T14:49:32.768Z,2.62
2023-01-19T14:52:05.185Z,2.60
2023-01-19T14:54:46.945Z,2.55
2023-01-19T14:57:15.370Z,2.51
2023-01-19T14:59:46.952Z,2.47
2023-01-19T15:02:14.135Z,2.39
2023-01-19T15:04:41.340Z,2.46
2023-01-19T15:07:18.755Z,2.50
2023-01-19T15:09:48.285Z,2.55
2023-01-19T15:12:18.791Z,2.59
2023-01-19T15:14:46.677Z,2.62
2023-01-19T15:17:30.012Z,2.56
2023-01-19T15:19:57.498Z,2.55
2023-01-19T15:22:28.419Z,2.54
2023-01-19T15:24:59.949Z,2.52
2023-01-19T15:27:27.390Z,2.51
2023-01-19T15:29:54.672Z,2.55
2023-01-19T15:32:21.705Z,2.54
2023-01-19T15:34:49.106Z,2.56
2023-01-19T15:37:16.129Z,2.56
2023-01-19T15:39:43.332Z,2.59
2023-01-19T15:42:15.814Z,2.58
2023-01-19T15:44:43.040Z,2.50
2023-01-19T15:47:10.863Z,2.53
2023-01-19T15:49:38.208Z,2.53
2023-01-19T15:52:05.267Z,2.52
2023-01-19T15:54:32.581Z,2.55
2023-01-19T15:56:59.703Z,2.52
2023-01-19T15:59:27.004Z,2.54
2023-01-19T16:01:54.085Z,2.54
2023-01-19T16:04:21.425Z,2.50
2023-01-19T16:06:50.092Z,2.38
2023-01-19T16:09:20.056Z,2.44
2023-01-19T16:11:47.221Z,2.47
2023-01-19T16:14:16.610Z,2.48
2023-01-19T16:16:46.287Z,2.50
2023-01-19T16:19:16.048Z,2.50
2023-01-19T16:21:44.099Z,2.52
2023-01-19T16:24:11.385Z,2.52
2023-01-19T16:26:38.593Z,2.52
2023-01-19T16:29:09.847Z,2.52
2023-01-19T16:31:39.501Z,2.54
2023-01-19T16:34:07.445Z,2.52
2023-01-19T16:36:38.142Z,2.54
2023-01-19T16:39:10.906Z,2.57
2023-01-19T16:41:38.720Z,2.55
2023-01-19T16:44:06.953Z,2.54
2023-01-19T16:46:37.561Z,2.55
2023-01-19T16:49:14.883Z,2.54
2023-01-19T16:51:43.011Z,2.53
2023-01-19T16:54:16.160Z,2.52
2023-01-19T16:56:43.510Z,2.47
2023-01-19T16:59:15.701Z,2.42
2023-01-19T17:01:45.132Z,2.44
2023-01-19T17:04:14.310Z,2.43
2023-01-19T17:06:41.521Z,2.43
2023-01-19T17:09:10.287Z,2.42
2023-01-19T17:11:37.508Z,2.43
2023-01-19T17:14:09.265Z,2.45
2023-01-19T17:16:36.830Z,2.45
2023-01-19T17:19:06.997Z,2.42
2023-01-19T17:21:35.401Z,2.40
2023-01-19T17:24:02.630Z,2.41
2023-01-19T17:26:31.274Z,2.40
2023-01-19T17:29:07.571Z,2.43
2023-01-19T17:31:36.129Z,2.38
2023-01-19T17:34:04.237Z,2.36
2023-01-19T17:36:33.119Z,2.32
2023-01-19T17:39:07.856Z,2.27
2023-01-19T17:41:36.243Z,2.27
2023-01-19T17:44:05.926Z,2.23
2023-01-19T17:46:36.834Z,2.22
2023-01-19T17:49:07.489Z,2.21
2023-01-19T17:51:35.556Z,2.22
2023-01-19T17:54:04.316Z,2.21
2023-01-19T17:56:36.772Z,2.22
2023-01-19T17:59:08.024Z,2.24
2023-01-19T18:01:39.946Z,2.27
2023-01-19T18:04:08.947Z,2.29
2023-01-19T18:06:37.634Z,2.23
2023-01-19T18:09:07.487Z,2.27
2023-01-19T18:11:36.236Z,2.29
2023-01-19T18:14:05.520Z,2.30
2023-01-19T18:16:32.697Z,2.29
2023-01-19T18:19:00.102Z,2.19
2023-01-19T18:21:28.877Z,2.27
2023-01-19T18:24:03.750Z,2.30
2023-01-19T18:26:33.812Z,2.31
2023-01-19T18:29:01.521Z,2.29
2023-01-19T18:31:28.629Z,2.29
2023-01-19T18:33:56.100Z,2.31
2023-01-19T18:36:23.521Z,2.24
2023-01-19T18:38:51.047Z,2.24
2023-01-19T18:41:22.255Z,2.21
2023-01-19T18:43:50.421Z,2.19
2023-01-19T18:46:17.866Z,2.19
2023-01-19T18:48:45.151Z,2.16
2023-01-19T18:51:15.333Z,2.13
2023-01-19T18:53:44.990Z,2.13
2023-01-19T18:56:15.573Z,2.17
2023-01-19T18:58:44.344Z,2.16
2023-01-19T19:01:33.001Z,2.20
2023-01-19T19:04:01.206Z,2.18
2023-01-19T19:06:28.447Z,2.22
2023-01-19T19:08:59.266Z,2.24
2023-01-19T19:11:27.907Z,2.27
2023-01-19T19:14:03.617Z,2.29
2023-01-19T19:16:32.760Z,2.31
2023-01-19T19:19:02.036Z,2.27
2023-01-19T19:21:28.940Z,2.26
2023-01-19T19:23:58.253Z,2.21
2023-01-19T19:26:28.315Z,2.19
2023-01-19T19:28:56.376Z,2.23
2023-01-19T19:31:26.165Z,2.23
2023-01-19T19:33:56.117Z,2.22
2023-01-19T19:36:25.374Z,2.20
2023-01-19T19:38:53.149Z,2.19
2023-01-19T19:41:24.267Z,2.18
2023-01-19T19:43:51.436Z,2.16
2023-01-19T19:46:20.939Z,2.14
2023-01-19T19:48:49.074Z,2.08
2023-01-19T19:51:27.533Z,2.06
2023-01-19T19:53:58.976Z,2.07
2023-01-19T19:56:29.224Z,2.05
2023-01-19T19:58:59.463Z,2.05
2023-01-19T20:01:32.541Z,2.06
2023-01-19T20:04:10.941Z,2.04
2023-01-19T20:06:44.899Z,2.03
2023-01-19T20:09:14.126Z,1.99
2023-01-19T20:11:46.823Z,1.98
2023-01-19T20:14:16.242Z,1.99
2023-01-19T20:16:43.595Z,1.97
2023-01-19T20:19:11.144Z,1.97
2023-01-19T20:21:44.745Z,1.97
2023-01-19T20:24:17.688Z,1.93
2023-01-19T20:26:50.513Z,1.93
2023-01-19T20:29:19.245Z,1.95
2023-01-19T20:31:52.271Z,1.97
2023-01-19T20:34:24.888Z,1.99
2023-01-19T20:36:54.046Z,1.98
2023-01-19T20:39:23.943Z,1.94
2023-01-19T20:41:52.622Z,1.92
2023-01-19T20:44:23.893Z,1.90
2023-01-19T20:46:51.764Z,1.91
2023-01-19T20:49:19.255Z,1.91
2023-01-19T20:51:47.094Z,1.89
2023-01-19T20:54:18.846Z,1.88
2023-01-19T20:56:46.035Z,1.89
2023-01-19T20:59:13.876Z,1.90
2023-01-19T21:01:42.044Z,1.89
2023-01-19T21:04:10.152Z,1.89
2023-01-19T21:06:39.466Z,1.88
2023-01-19T21:09:10.151Z,1.88
2023-01-19T21:11:39.165Z,1.92
2023-01-19T21:14:07.062Z,1.92
2023-01-19T21:16:35.804Z,1.93
2023-01-19T21:19:04.927Z,1.94
2023-01-19T21:21:32.315Z,1.89
2023-01-19T21:24:04.057Z,1.89
2023-01-19T21:26:33.448Z,1.93
2023-01-19T21:29:02.729Z,1.95
2023-01-19T21:31:30.909Z,1.92
2023-01-19T21:33:58.786Z,1.88
2023-01-19T21:36:26.522Z,1.88
2023-01-19T21:39:00.545Z,1.83
2023-01-19T21:41:30.091Z,1.77
2023-01-19T21:43:58.657Z,1.76
2023-01-19T21:46:29.119Z,1.73
2023-01-19T21:49:03.709Z,1.75
2023-01-19T21:51:35.926Z,1.76
2023-01-19T21:54:06.177Z,1.75
2023-01-19T21:56:34.139Z,1.72
2023-01-19T21:59:04.343Z,1.75
2023-01-19T22:01:33.660Z,1.75
2023-01-19T22:04:01.082Z,1.76
2023-01-19T22:06:29.005Z,1.72
2023-01-19T22:08:57.975Z,1.72
2023-01-19T22:11:25.491Z,1.73
2023-01-19T22:13:53.710Z,1.72
2023-01-19T22:16:23.202Z,1.68
2023-01-19T22:18:59.426Z,1.67
2023-01-19T22:21:35.445Z,1.67
2023-01-19T22:24:05.415Z,1.68
2023-01-19T22:26:34.389Z,1.65
2023-01-19T22:29:03.134Z,1.64
2023-01-19T22:31:31.264Z,1.61
2023-01-19T22:33:58.967Z,1.64
2023-01-19T22:36:33.862Z,1.64
2023-01-19T22:39:09.222Z,1.67
2023-01-19T22:41:43.039Z,1.68
2023-01-19T22:44:18.087Z,1.68
2023-01-19T22:46:45.030Z,1.64
2023-01-19T22:49:17.171Z,1.60
2023-01-19T22:51:45.615Z,1.58
2023-01-19T22:54:14.108Z,1.56
2023-01-19T22:56:42.035Z,1.56
2023-01-19T22:59:09.651Z,1.50
2023-01-19T23:01:43.463Z,1.48
2023-01-19T23:04:15.052Z,1.49
2023-01-19T23:06:42.800Z,1.50
2023-01-19T23:09:14.644Z,1.47
2023-01-19T23:11:45.089Z,1.42
2023-01-19T23:14:19.553Z,1.37
2023-01-19T23:16:47.202Z,1.37
2023-01-19T23:19:17.239Z,1.40
2023-01-19T23:21:45.581Z,1.43
2023-01-19T23:24:12.871Z,1.42
2023-01-19T23:26:39.947Z,1.43
2023-01-19T23:29:13.879Z,1.43
2023-01-19T23:31:46.165Z,1.48
2023-01-19T23:34:14.770Z,1.47
2023-01-19T23:36:43.723Z,1.52
2023-01-19T23:39:22.256Z,1.47
2023-01-19T23:41:49.965Z,1.49
2023-01-19T23:44:18.324Z,1.44
2023-01-19T23:46:46.533Z,1.49
2023-01-19T23:49:14.386Z,1.50
2023-01-19T23:51:42.151Z,1.49
2023-01-19T23:54:09.450Z,1.48
2023-01-19T23:56:38.793Z,1.46
2023-01-19T23:59:10.845Z,1.46
